^^
Saratoga-Weather Station Historical Data
Daily Summary for December 6, 2020 Units:  Both    English   Metric
Daily Weekly Monthly Yearly Custom
  High: Low: Average:
Temperature: 40.8 °F /  4.9 °C 33.3 °F /  0.7 °C 36.1 °F /  2.3 °C
Dew Point: 38.1 °F /  3.4 °C 32.2 °F /  0.1 °C 34.9 °F /  1.6 °C
Humidity: 97% 89% 95%
Wind Speed: 2.9mph /  4.7km/h - 0.2mph /  0.4km/h
Wind Gust: 3mph /  4.8km/h - -
Wind- - SSE
Pressure: 29.5 in /  1000.3 hPa 29.5 in /  998.0 hPa -
Precipitation: 0 in /  0.0 mm    
Historical Graphs
 
 
Tabular Data for December 6, 2020
Time Temperature Dew Point Pressure Wind Wind Speed Wind Gust Humidity Rainfall Rate (Hourly) solar
00:03 33.3 °F /  0.7 °C 32.2 °F /  0.1 °C 29.5in /  999.0hPa Calm     96% 0in /  0.0mm 0 W/m2
00:08 33.3 °F /  0.7 °C 32.2 °F /  0.1 °C 29.5in /  999.0hPa Calm     96% 0in /  0.0mm 0 W/m2
00:13 33.3 °F /  0.7 °C 32.2 °F /  0.1 °C 29.5in /  999.0hPa Calm     96% 0in /  0.0mm 0 W/m2
00:18 33.3 °F /  0.7 °C 32.2 °F /  0.1 °C 29.5in /  998.6hPa Calm     96% 0in /  0.0mm 0 W/m2
00:23 33.3 °F /  0.7 °C 32.2 °F /  0.1 °C 29.5in /  998.6hPa Calm     96% 0in /  0.0mm 0 W/m2
00:28 33.3 °F /  0.7 °C 32.2 °F /  0.1 °C 29.5in /  998.6hPa Calm     96% 0in /  0.0mm 0 W/m2
00:33 33.3 °F /  0.7 °C 32.2 °F /  0.1 °C 29.5in /  998.6hPa Calm     96% 0in /  0.0mm 0 W/m2
00:38 33.4 °F /  0.8 °C 32.4 °F /  0.2 °C 29.5in /  998.6hPa Calm     96% 0in /  0.0mm 0 W/m2
00:43 33.4 °F /  0.8 °C 32.4 °F /  0.2 °C 29.5in /  998.6hPa Calm     96% 0in /  0.0mm 0 W/m2
00:48 33.4 °F /  0.8 °C 32.4 °F /  0.2 °C 29.5in /  998.6hPa Calm     96% 0in /  0.0mm 0 W/m2
00:53 33.3 °F /  0.7 °C 32.2 °F /  0.1 °C 29.5in /  998.3hPa Calm     96% 0in /  0.0mm 0 W/m2
00:58 33.4 °F /  0.8 °C 32.4 °F /  0.2 °C 29.5in /  998.6hPa Calm     96% 0in /  0.0mm 0 W/m2
01:03 33.4 °F /  0.8 °C 32.4 °F /  0.2 °C 29.5in /  998.6hPa Calm     96% 0in /  0.0mm 0 W/m2
01:08 33.4 °F /  0.8 °C 32.4 °F /  0.2 °C 29.5in /  998.6hPa Calm     96% 0in /  0.0mm 0 W/m2
01:13 33.6 °F /  0.9 °C 32.9 °F /  0.5 °C 29.5in /  998.6hPa Calm     97% 0in /  0.0mm 0 W/m2
01:18 33.8 °F /  1 °C 33.1 °F /  0.6 °C 29.5in /  998.6hPa Calm     97% 0in /  0.0mm 0 W/m2
01:23 33.8 °F /  1 °C 33.1 °F /  0.6 °C 29.5in /  998.6hPa Calm     97% 0in /  0.0mm 0 W/m2
01:28 33.6 °F /  0.9 °C 32.9 °F /  0.5 °C 29.5in /  998.6hPa Calm     97% 0in /  0.0mm 0 W/m2
01:33 33.6 °F /  0.9 °C 32.9 °F /  0.5 °C 29.5in /  998.6hPa Calm     97% 0in /  0.0mm 0 W/m2
01:38 33.6 °F /  0.9 °C 32.9 °F /  0.5 °C 29.5in /  998.6hPa Calm     97% 0in /  0.0mm 0 W/m2
01:43 33.4 °F /  0.8 °C 32.7 °F /  0.4 °C 29.5in /  998.6hPa Calm     97% 0in /  0.0mm 0 W/m2
01:48 33.6 °F /  0.9 °C 32.9 °F /  0.5 °C 29.5in /  998.6hPa Calm     97% 0in /  0.0mm 0 W/m2
01:53 33.6 °F /  0.9 °C 32.9 °F /  0.5 °C 29.5in /  999.0hPa Calm     97% 0in /  0.0mm 0 W/m2
01:58 33.8 °F /  1 °C 33.1 °F /  0.6 °C 29.5in /  998.6hPa Calm     97% 0in /  0.0mm 0 W/m2
02:03 33.8 °F /  1 °C 33.1 °F /  0.6 °C 29.5in /  999.3hPa Calm     97% 0in /  0.0mm 0 W/m2
02:08 34 °F /  1.1 °C 33.3 °F /  0.7 °C 29.5in /  999.3hPa Calm     97% 0in /  0.0mm 0 W/m2
02:13 34 °F /  1.1 °C 33.3 °F /  0.7 °C 29.5in /  999.3hPa Calm     97% 0in /  0.0mm 0 W/m2
02:18 34 °F /  1.1 °C 33.3 °F /  0.7 °C 29.5in /  999.0hPa Calm     97% 0in /  0.0mm 0 W/m2
02:23 34 °F /  1.1 °C 33.3 °F /  0.7 °C 29.5in /  999.0hPa Calm     97% 0in /  0.0mm 0 W/m2
02:28 34 °F /  1.1 °C 33.3 °F /  0.7 °C 29.5in /  999.3hPa Calm     97% 0in /  0.0mm 0 W/m2
02:33 34 °F /  1.1 °C 33.3 °F /  0.7 °C 29.5in /  999.0hPa Calm     97% 0in /  0.0mm 0 W/m2
02:38 33.8 °F /  1 °C 33.1 °F /  0.6 °C 29.5in /  998.6hPa Calm     97% 0in /  0.0mm 0 W/m2
02:43 33.8 °F /  1 °C 33.1 °F /  0.6 °C 29.5in /  999.0hPa Calm     97% 0in /  0.0mm 0 W/m2
02:48 33.6 °F /  0.9 °C 32.9 °F /  0.5 °C 29.5in /  999.0hPa Calm     97% 0in /  0.0mm 0 W/m2
02:53 33.6 °F /  0.9 °C 32.9 °F /  0.5 °C 29.5in /  999.0hPa Calm   1mph /  1.6km/h 97% 0in /  0.0mm 0 W/m2
02:58 33.6 °F /  0.9 °C 32.9 °F /  0.5 °C 29.5in /  999.3hPa Calm   1mph /  1.6km/h 97% 0in /  0.0mm 0 W/m2
03:03 33.8 °F /  1 °C 33.1 °F /  0.6 °C 29.5in /  999.3hPa East 0.9mph /  1.4km/h 1mph /  1.6km/h 97% 0in /  0.0mm 0 W/m2
03:08 33.8 °F /  1 °C 33.1 °F /  0.6 °C 29.5in /  999.3hPa Calm     97% 0in /  0.0mm 0 W/m2
03:13 33.8 °F /  1 °C 33.1 °F /  0.6 °C 29.5in /  999.3hPa Calm     97% 0in /  0.0mm 0 W/m2
03:18 33.8 °F /  1 °C 33.1 °F /  0.6 °C 29.5in /  999.0hPa Calm     97% 0in /  0.0mm 0 W/m2
03:23 33.6 °F /  0.9 °C 32.9 °F /  0.5 °C 29.5in /  999.0hPa East 0.9mph /  1.4km/h 1mph /  1.6km/h 97% 0in /  0.0mm 0 W/m2
03:28 33.6 °F /  0.9 °C 32.9 °F /  0.5 °C 29.5in /  999.0hPa Calm     97% 0in /  0.0mm 0 W/m2
03:33 33.6 °F /  0.9 °C 32.9 °F /  0.5 °C 29.5in /  999.0hPa Calm     97% 0in /  0.0mm 0 W/m2
03:38 33.4 °F /  0.8 °C 32.7 °F /  0.4 °C 29.5in /  999.0hPa Calm   1mph /  1.6km/h 97% 0in /  0.0mm 0 W/m2
03:43 33.4 °F /  0.8 °C 32.4 °F /  0.2 °C 29.5in /  999.0hPa Calm     96% 0in /  0.0mm 0 W/m2
03:48 33.4 °F /  0.8 °C 32.7 °F /  0.4 °C 29.5in /  999.0hPa East 0.9mph /  1.4km/h 1mph /  1.6km/h 97% 0in /  0.0mm 0 W/m2
03:53 33.4 °F /  0.8 °C 32.7 °F /  0.4 °C 29.5in /  999.0hPa Calm     97% 0in /  0.0mm 0 W/m2
03:58 33.4 °F /  0.8 °C 32.7 °F /  0.4 °C 29.5in /  999.0hPa Calm     97% 0in /  0.0mm 0 W/m2
04:03 33.4 °F /  0.8 °C 32.7 °F /  0.4 °C 29.5in /  999.0hPa East 0.9mph /  1.4km/h 2mph /  3.2km/h 97% 0in /  0.0mm 0 W/m2
04:08 33.4 °F /  0.8 °C 32.7 °F /  0.4 °C 29.5in /  999.0hPa Calm     97% 0in /  0.0mm 0 W/m2
04:13 33.4 °F /  0.8 °C 32.7 °F /  0.4 °C 29.5in /  999.0hPa Calm   2mph /  3.2km/h 97% 0in /  0.0mm 0 W/m2
04:18 33.4 °F /  0.8 °C 32.7 °F /  0.4 °C 29.5in /  999.0hPa Calm     97% 0in /  0.0mm 0 W/m2
04:23 33.4 °F /  0.8 °C 32.7 °F /  0.4 °C 29.5in /  999.0hPa Calm     97% 0in /  0.0mm 0 W/m2
04:28 33.4 °F /  0.8 °C 32.7 °F /  0.4 °C 29.5in /  999.0hPa Calm     97% 0in /  0.0mm 0 W/m2
04:33 33.4 °F /  0.8 °C 32.7 °F /  0.4 °C 29.5in /  999.0hPa Calm     97% 0in /  0.0mm 0 W/m2
04:38 33.4 °F /  0.8 °C 32.7 °F /  0.4 °C 29.5in /  999.0hPa Calm     97% 0in /  0.0mm 0 W/m2
04:43 33.4 °F /  0.8 °C 32.7 °F /  0.4 °C 29.5in /  999.0hPa Calm     97% 0in /  0.0mm 0 W/m2
04:48 33.4 °F /  0.8 °C 32.7 °F /  0.4 °C 29.5in /  999.0hPa Calm     97% 0in /  0.0mm 0 W/m2
04:53 33.4 °F /  0.8 °C 32.7 °F /  0.4 °C 29.5in /  999.0hPa Calm     97% 0in /  0.0mm 0 W/m2
04:58 33.4 °F /  0.8 °C 32.7 °F /  0.4 °C 29.5in /  999.0hPa Calm     97% 0in /  0.0mm 0 W/m2
05:03 33.4 °F /  0.8 °C 32.7 °F /  0.4 °C 29.5in /  999.0hPa Calm     97% 0in /  0.0mm 0 W/m2
05:08 33.6 °F /  0.9 °C 32.9 °F /  0.5 °C 29.5in /  998.6hPa Calm     97% 0in /  0.0mm 0 W/m2
05:13 33.8 °F /  1 °C 33.1 °F /  0.6 °C 29.5in /  998.6hPa Calm     97% 0in /  0.0mm 0 W/m2
05:18 34 °F /  1.1 °C 33.3 °F /  0.7 °C 29.5in /  999.0hPa Calm     97% 0in /  0.0mm 0 W/m2
05:23 34 °F /  1.1 °C 33.3 °F /  0.7 °C 29.5in /  998.6hPa Calm     97% 0in /  0.0mm 0 W/m2
05:28 34.2 °F /  1.2 °C 33.4 °F /  0.8 °C 29.5in /  999.0hPa Calm     97% 0in /  0.0mm 0 W/m2
05:33 34.2 °F /  1.2 °C 33.4 °F /  0.8 °C 29.5in /  999.0hPa Calm   2mph /  3.2km/h 97% 0in /  0.0mm 0 W/m2
05:38 34.2 °F /  1.2 °C 33.4 °F /  0.8 °C 29.5in /  998.6hPa Calm     97% 0in /  0.0mm 0 W/m2
05:43 34.2 °F /  1.2 °C 33.4 °F /  0.8 °C 29.5in /  999.0hPa Calm   2mph /  3.2km/h 97% 0in /  0.0mm 0 W/m2
05:48 34.2 °F /  1.2 °C 33.4 °F /  0.8 °C 29.5in /  998.6hPa Calm     97% 0in /  0.0mm 0 W/m2
05:53 34.2 °F /  1.2 °C 33.4 °F /  0.8 °C 29.5in /  998.6hPa Calm     97% 0in /  0.0mm 0 W/m2
05:58 34.2 °F /  1.2 °C 33.4 °F /  0.8 °C 29.5in /  998.6hPa Calm     97% 0in /  0.0mm 0 W/m2
06:03 34.2 °F /  1.2 °C 33.4 °F /  0.8 °C 29.5in /  998.6hPa Calm     97% 0in /  0.0mm 0 W/m2
06:08 34.2 °F /  1.2 °C 33.4 °F /  0.8 °C 29.5in /  998.6hPa Calm     97% 0in /  0.0mm 0 W/m2
06:13 34.2 °F /  1.2 °C 33.4 °F /  0.8 °C 29.5in /  998.6hPa Calm     97% 0in /  0.0mm 0 W/m2
06:18 34.3 °F /  1.3 °C 33.6 °F /  0.9 °C 29.5in /  998.6hPa Calm     97% 0in /  0.0mm 0 W/m2
06:23 34.3 °F /  1.3 °C 33.6 °F /  0.9 °C 29.5in /  998.6hPa Calm     97% 0in /  0.0mm 0 W/m2
06:28 34.3 °F /  1.3 °C 33.6 °F /  0.9 °C 29.5in /  998.6hPa Calm     97% 0in /  0.0mm 0 W/m2
06:33 34.3 °F /  1.3 °C 33.6 °F /  0.9 °C 29.5in /  998.6hPa Calm     97% 0in /  0.0mm 0 W/m2
06:38 34.3 °F /  1.3 °C 33.6 °F /  0.9 °C 29.5in /  998.6hPa Calm     97% 0in /  0.0mm 0 W/m2
06:43 34.3 °F /  1.3 °C 33.6 °F /  0.9 °C 29.5in /  998.6hPa Calm     97% 0in /  0.0mm 0 W/m2
06:48 34.5 °F /  1.4 °C 33.8 °F /  1 °C 29.5in /  998.6hPa Calm     97% 0in /  0.0mm 0 W/m2
06:53 34.5 °F /  1.4 °C 33.8 °F /  1 °C 29.5in /  998.6hPa Calm     97% 0in /  0.0mm 0 W/m2
06:58 34.5 °F /  1.4 °C 33.8 °F /  1 °C 29.5in /  998.6hPa Calm     97% 0in /  0.0mm 0 W/m2
07:03 34.5 °F /  1.4 °C 33.8 °F /  1 °C 29.5in /  998.6hPa Calm     97% 0in /  0.0mm 0 W/m2
07:08 34.5 °F /  1.4 °C 33.8 °F /  1 °C 29.5in /  999.0hPa Calm     97% 0in /  0.0mm 0 W/m2
07:14 34.7 °F /  1.5 °C 34 °F /  1.1 °C 29.5in /  999.0hPa Calm     97% 0in /  0.0mm 0 W/m2
07:19 34.7 °F /  1.5 °C 34 °F /  1.1 °C 29.5in /  999.3hPa Calm     97% 0in /  0.0mm 0 W/m2
07:24 34.9 °F /  1.6 °C 34.2 °F /  1.2 °C 29.5in /  999.3hPa Calm     97% 0in /  0.0mm 0 W/m2
07:29 34.9 °F /  1.6 °C 34.2 °F /  1.2 °C 29.5in /  999.3hPa Calm     97% 0in /  0.0mm 0 W/m2
07:34 34.9 °F /  1.6 °C 34.2 °F /  1.2 °C 29.5in /  999.3hPa Calm     97% 0in /  0.0mm 0 W/m2
07:39 34.9 °F /  1.6 °C 34.2 °F /  1.2 °C 29.5in /  999.3hPa Calm     97% 0in /  0.0mm 0 W/m2
07:44 34.9 °F /  1.6 °C 34.2 °F /  1.2 °C 29.5in /  999.3hPa Calm     97% 0in /  0.0mm 0 W/m2
07:49 34.9 °F /  1.6 °C 34.2 °F /  1.2 °C 29.5in /  999.0hPa Calm     97% 0in /  0.0mm 0 W/m2
07:54 34.9 °F /  1.6 °C 34.2 °F /  1.2 °C 29.5in /  999.3hPa Calm     97% 0in /  0.0mm 0 W/m2
07:59 34.9 °F /  1.6 °C 34.2 °F /  1.2 °C 29.5in /  999.3hPa Calm     97% 0in /  0.0mm 0 W/m2
08:04 34.9 °F /  1.6 °C 34.2 °F /  1.2 °C 29.5in /  999.3hPa Calm     97% 0in /  0.0mm 0 W/m2
08:09 34.9 °F /  1.6 °C 34.2 °F /  1.2 °C 29.5in /  999.3hPa Calm   2mph /  3.2km/h 97% 0in /  0.0mm 0 W/m2
08:14 34.9 °F /  1.6 °C 34.2 °F /  1.2 °C 29.5in /  999.3hPa Calm   1mph /  1.6km/h 97% 0in /  0.0mm 0 W/m2
08:19 34.9 °F /  1.6 °C 34.2 °F /  1.2 °C 29.5in /  999.3hPa Calm   1mph /  1.6km/h 97% 0in /  0.0mm 0 W/m2
08:24 34.9 °F /  1.6 °C 34.2 °F /  1.2 °C 29.5in /  999.3hPa East 0.9mph /  1.4km/h 2mph /  3.2km/h 97% 0in /  0.0mm 0 W/m2
08:29 34.9 °F /  1.6 °C 34.2 °F /  1.2 °C 29.5in /  999.3hPa Calm   3mph /  4.8km/h 97% 0in /  0.0mm 0 W/m2
08:34 34.9 °F /  1.6 °C 34.2 °F /  1.2 °C 29.5in /  999.3hPa Calm     97% 0in /  0.0mm 0 W/m2
08:39 34.9 °F /  1.6 °C 34.2 °F /  1.2 °C 29.5in /  999.3hPa Calm   2mph /  3.2km/h 97% 0in /  0.0mm 5 W/m2
08:44 34.9 °F /  1.6 °C 34.2 °F /  1.2 °C 29.5in /  999.3hPa East 0.9mph /  1.4km/h 1mph /  1.6km/h 97% 0in /  0.0mm 5 W/m2
08:49 34.9 °F /  1.6 °C 34.2 °F /  1.2 °C 29.5in /  999.3hPa Calm   1mph /  1.6km/h 97% 0in /  0.0mm 7 W/m2
08:54 34.9 °F /  1.6 °C 34.2 °F /  1.2 °C 29.5in /  999.3hPa Calm     97% 0in /  0.0mm 9 W/m2
08:59 34.9 °F /  1.6 °C 34.2 °F /  1.2 °C 29.5in /  999.3hPa East 2mph /  3.2km/h 2mph /  3.2km/h 97% 0in /  0.0mm 11 W/m2
09:04 34.9 °F /  1.6 °C 34.2 °F /  1.2 °C 29.5in /  999.3hPa Calm     97% 0in /  0.0mm 11 W/m2
09:09 35.1 °F /  1.7 °C 34.3 °F /  1.3 °C 29.5in /  999.3hPa Calm     97% 0in /  0.0mm 12 W/m2
09:14 35.1 °F /  1.7 °C 34.3 °F /  1.3 °C 29.5in /  999.3hPa Calm     97% 0in /  0.0mm 14 W/m2
09:19 35.1 °F /  1.7 °C 34.3 °F /  1.3 °C 29.5in /  999.3hPa Calm     97% 0in /  0.0mm 14 W/m2
09:24 35.1 °F /  1.7 °C 34.3 °F /  1.3 °C 29.5in /  999.3hPa Calm     97% 0in /  0.0mm 16 W/m2
09:29 35.2 °F /  1.8 °C 34.5 °F /  1.4 °C 29.5in /  999.3hPa Calm     97% 0in /  0.0mm 18 W/m2
09:34 35.2 °F /  1.8 °C 34.5 °F /  1.4 °C 29.5in /  999.3hPa Calm     97% 0in /  0.0mm 19 W/m2
09:39 35.2 °F /  1.8 °C 34.5 °F /  1.4 °C 29.5in /  999.3hPa Calm     97% 0in /  0.0mm 19 W/m2
09:44 35.2 °F /  1.8 °C 34.5 °F /  1.4 °C 29.5in /  999.3hPa Calm     97% 0in /  0.0mm 25 W/m2
09:53 35.4 °F /  1.9 °C 34.7 °F /  1.5 °C 29.5in /  999.3hPa Calm     97% 0in /  0.0mm 23 W/m2
09:58 35.4 °F /  1.9 °C 34.7 °F /  1.5 °C 29.5in /  999.3hPa Calm     97% 0in /  0.0mm 25 W/m2
10:03 35.4 °F /  1.9 °C 34.7 °F /  1.5 °C 29.5in /  999.3hPa Calm     97% 0in /  0.0mm 25 W/m2
10:08 35.6 °F /  2 °C 34.9 °F /  1.6 °C 29.5in /  999.3hPa Calm     97% 0in /  0.0mm 25 W/m2
10:13 35.8 °F /  2.1 °C 35.1 °F /  1.7 °C 29.5in /  999.3hPa Calm     97% 0in /  0.0mm 28 W/m2
10:18 35.8 °F /  2.1 °C 35.1 °F /  1.7 °C 29.5in /  999.3hPa Calm     97% 0in /  0.0mm 28 W/m2
10:23 36 °F /  2.2 °C 35.2 °F /  1.8 °C 29.5in /  999.3hPa Calm     97% 0in /  0.0mm 23 W/m2
10:28 36 °F /  2.2 °C 35.2 °F /  1.8 °C 29.5in /  999.3hPa Calm     97% 0in /  0.0mm 26 W/m2
10:33 36 °F /  2.2 °C 35.2 °F /  1.8 °C 29.5in /  999.3hPa Calm     97% 0in /  0.0mm 26 W/m2
10:38 36 °F /  2.2 °C 35.2 °F /  1.8 °C 29.5in /  999.3hPa Calm     97% 0in /  0.0mm 30 W/m2
10:43 36 °F /  2.2 °C 35.2 °F /  1.8 °C 29.5in /  999.3hPa Calm     97% 0in /  0.0mm 33 W/m2
10:48 36.1 °F /  2.3 °C 35.4 °F /  1.9 °C 29.5in /  999.3hPa Calm     97% 0in /  0.0mm 33 W/m2
10:53 36.1 °F /  2.3 °C 35.4 °F /  1.9 °C 29.5in /  999.7hPa Calm     97% 0in /  0.0mm 40 W/m2
10:58 36.1 °F /  2.3 °C 35.4 °F /  1.9 °C 29.5in /  999.7hPa Calm     97% 0in /  0.0mm 40 W/m2
11:03 36.3 °F /  2.4 °C 35.6 °F /  2 °C 29.5in /  999.7hPa Calm     97% 0in /  0.0mm 42 W/m2
11:08 36.3 °F /  2.4 °C 35.6 °F /  2 °C 29.5in /  999.7hPa Calm     97% 0in /  0.0mm 46 W/m2
11:13 36.5 °F /  2.5 °C 35.8 °F /  2.1 °C 29.5in /  999.7hPa East 0.9mph /  1.4km/h 3mph /  4.8km/h 97% 0in /  0.0mm 47 W/m2
11:19 36.5 °F /  2.5 °C 35.8 °F /  2.1 °C 29.5in /  999.7hPa Calm   2mph /  3.2km/h 97% 0in /  0.0mm 44 W/m2
11:24 36.7 °F /  2.6 °C 36 °F /  2.2 °C 29.5in /  1000.0hPa Calm   2mph /  3.2km/h 97% 0in /  0.0mm 46 W/m2
11:29 36.7 °F /  2.6 °C 36 °F /  2.2 °C 29.5in /  1000.3hPa ESE 0.9mph /  1.4km/h 3mph /  4.8km/h 97% 0in /  0.0mm 49 W/m2
11:34 36.9 °F /  2.7 °C 36.1 °F /  2.3 °C 29.5in /  1000.0hPa Calm   1mph /  1.6km/h 97% 0in /  0.0mm 58 W/m2
11:39 37 °F /  2.8 °C 36.3 °F /  2.4 °C 29.5in /  1000.0hPa Calm   1mph /  1.6km/h 97% 0in /  0.0mm 54 W/m2
11:44 37 °F /  2.8 °C 36 °F /  2.2 °C 29.5in /  1000.0hPa Calm   1mph /  1.6km/h 96% 0in /  0.0mm 56 W/m2
11:49 37.2 °F /  2.9 °C 36.5 °F /  2.5 °C 29.5in /  1000.0hPa Calm     97% 0in /  0.0mm 58 W/m2
11:54 37.2 °F /  2.9 °C 36.1 °F /  2.3 °C 29.5in /  999.7hPa Calm   1mph /  1.6km/h 96% 0in /  0.0mm 77 W/m2
11:59 37.2 °F /  2.9 °C 36.1 °F /  2.3 °C 29.5in /  999.7hPa ESE 0.9mph /  1.4km/h 2mph /  3.2km/h 96% 0in /  0.0mm 97 W/m2
12:04 37.4 °F /  3 °C 36.3 °F /  2.4 °C 29.5in /  999.3hPa Calm   3mph /  4.8km/h 96% 0in /  0.0mm 118 W/m2
12:09 37.4 °F /  3 °C 36.3 °F /  2.4 °C 29.5in /  999.3hPa West 0.9mph /  1.4km/h 2mph /  3.2km/h 96% 0in /  0.0mm 118 W/m2
12:14 37.6 °F /  3.1 °C 36.5 °F /  2.5 °C 29.5in /  999.3hPa WNW 2mph /  3.2km/h 2mph /  3.2km/h 96% 0in /  0.0mm 144 W/m2
12:19 37.9 °F /  3.3 °C 36.9 °F /  2.7 °C 29.5in /  999.3hPa WNW 2mph /  3.2km/h 3mph /  4.8km/h 96% 0in /  0.0mm 142 W/m2
12:24 37.9 °F /  3.3 °C 36.7 °F /  2.6 °C 29.5in /  999.3hPa West 0.9mph /  1.4km/h 2mph /  3.2km/h 95% 0in /  0.0mm 146 W/m2
12:29 38.3 °F /  3.5 °C 37 °F /  2.8 °C 29.5in /  999.3hPa West 0.9mph /  1.4km/h 1mph /  1.6km/h 95% 0in /  0.0mm 139 W/m2
12:34 38.5 °F /  3.6 °C 37.2 °F /  2.9 °C 29.5in /  999.3hPa West 0.9mph /  1.4km/h 2mph /  3.2km/h 95% 0in /  0.0mm 134 W/m2
12:39 38.8 °F /  3.8 °C 37.6 °F /  3.1 °C 29.5in /  999.7hPa Calm     95% 0in /  0.0mm 132 W/m2
12:44 39 °F /  3.9 °C 37.8 °F /  3.2 °C 29.5in /  999.3hPa West 0.9mph /  1.4km/h 3mph /  4.8km/h 95% 0in /  0.0mm 111 W/m2
12:49 39.2 °F /  4 °C 37.6 °F /  3.1 °C 29.5in /  999.3hPa Calm   2mph /  3.2km/h 94% 0in /  0.0mm 93 W/m2
12:54 39.4 °F /  4.1 °C 37.8 °F /  3.2 °C 29.5in /  999.3hPa West 0.9mph /  1.4km/h 3mph /  4.8km/h 94% 0in /  0.0mm 69 W/m2
12:59 39.4 °F /  4.1 °C 37.6 °F /  3.1 °C 29.5in /  999.3hPa Calm     93% 0in /  0.0mm 65 W/m2
13:04 39.6 °F /  4.2 °C 37.8 °F /  3.2 °C 29.5in /  999.3hPa West 0.9mph /  1.4km/h 1mph /  1.6km/h 93% 0in /  0.0mm 74 W/m2
13:09 39.6 °F /  4.2 °C 37.8 °F /  3.2 °C 29.5in /  999.3hPa Calm     93% 0in /  0.0mm 90 W/m2
13:14 39.6 °F /  4.2 °C 37.8 °F /  3.2 °C 29.5in /  999.3hPa Calm   1mph /  1.6km/h 93% 0in /  0.0mm 100 W/m2
13:19 39.7 °F /  4.3 °C 37.9 °F /  3.3 °C 29.5in /  999.3hPa East 2mph /  3.2km/h 3mph /  4.8km/h 93% 0in /  0.0mm 97 W/m2
13:24 39.9 °F /  4.4 °C 37.8 °F /  3.2 °C 29.5in /  999.3hPa ESE 0.9mph /  1.4km/h 2mph /  3.2km/h 92% 0in /  0.0mm 102 W/m2
13:29 40.1 °F /  4.5 °C 37.9 °F /  3.3 °C 29.5in /  999.3hPa ESE 2mph /  3.2km/h 3mph /  4.8km/h 92% 0in /  0.0mm 98 W/m2
13:34 40.3 °F /  4.6 °C 37.9 °F /  3.3 °C 29.5in /  999.3hPa Calm   1mph /  1.6km/h 91% 0in /  0.0mm 109 W/m2
13:39 40.3 °F /  4.6 °C 37.9 °F /  3.3 °C 29.5in /  999.3hPa Calm   2mph /  3.2km/h 91% 0in /  0.0mm 113 W/m2
13:44 40.5 °F /  4.7 °C 38.1 °F /  3.4 °C 29.5in /  999.0hPa NE 0.9mph /  1.4km/h 2mph /  3.2km/h 91% 0in /  0.0mm 114 W/m2
13:49 40.3 °F /  4.6 °C 37.6 °F /  3.1 °C 29.5in /  999.0hPa NNE 2mph /  3.2km/h 2mph /  3.2km/h 90% 0in /  0.0mm 114 W/m2
13:54 40.5 °F /  4.7 °C 37.8 °F /  3.2 °C 29.5in /  999.0hPa East 0.9mph /  1.4km/h 1mph /  1.6km/h 90% 0in /  0.0mm 113 W/m2
13:59 40.5 °F /  4.7 °C 37.8 °F /  3.2 °C 29.5in /  999.0hPa ESE 0.9mph /  1.4km/h 2mph /  3.2km/h 90% 0in /  0.0mm 107 W/m2
14:04 40.5 °F /  4.7 °C 37.8 °F /  3.2 °C 29.5in /  999.0hPa SE 2mph /  3.2km/h 2mph /  3.2km/h 90% 0in /  0.0mm 107 W/m2
14:09 40.5 °F /  4.7 °C 37.8 °F /  3.2 °C 29.5in /  999.0hPa Calm     90% 0in /  0.0mm 111 W/m2
14:14 40.5 °F /  4.7 °C 37.8 °F /  3.2 °C 29.5in /  999.0hPa Calm     90% 0in /  0.0mm 118 W/m2
14:19 40.5 °F /  4.7 °C 37.8 °F /  3.2 °C 29.5in /  999.0hPa Calm     90% 0in /  0.0mm 114 W/m2
14:24 40.6 °F /  4.8 °C 37.9 °F /  3.3 °C 29.5in /  999.0hPa Calm   1mph /  1.6km/h 90% 0in /  0.0mm 104 W/m2
14:29 40.6 °F /  4.8 °C 37.9 °F /  3.3 °C 29.5in /  999.0hPa East 0.9mph /  1.4km/h 1mph /  1.6km/h 90% 0in /  0.0mm 107 W/m2
14:34 40.6 °F /  4.8 °C 37.9 °F /  3.3 °C 29.5in /  999.0hPa East 0.9mph /  1.4km/h 1mph /  1.6km/h 90% 0in /  0.0mm 104 W/m2
14:39 40.8 °F /  4.9 °C 38.1 °F /  3.4 °C 29.5in /  999.0hPa East 2mph /  3.2km/h 2mph /  3.2km/h 90% 0in /  0.0mm 93 W/m2
14:44 40.8 °F /  4.9 °C 38.1 °F /  3.4 °C 29.5in /  999.0hPa East 2mph /  3.2km/h 2mph /  3.2km/h 90% 0in /  0.0mm 84 W/m2
14:49 40.8 °F /  4.9 °C 38.1 °F /  3.4 °C 29.5in /  998.6hPa East 2mph /  3.2km/h 2mph /  3.2km/h 90% 0in /  0.0mm 84 W/m2
14:54 40.8 °F /  4.9 °C 38.1 °F /  3.4 °C 29.5in /  998.6hPa East 0.9mph /  1.4km/h 2mph /  3.2km/h 90% 0in /  0.0mm 90 W/m2
14:59 40.8 °F /  4.9 °C 38.1 °F /  3.4 °C 29.5in /  998.6hPa East 2mph /  3.2km/h 2mph /  3.2km/h 90% 0in /  0.0mm 95 W/m2
15:04 40.8 °F /  4.9 °C 38.1 °F /  3.4 °C 29.5in /  998.6hPa Calm   1mph /  1.6km/h 90% 0in /  0.0mm 90 W/m2
15:09 40.8 °F /  4.9 °C 37.8 °F /  3.2 °C 29.5in /  998.3hPa East 2mph /  3.2km/h 2mph /  3.2km/h 89% 0in /  0.0mm 95 W/m2
15:14 40.8 °F /  4.9 °C 38.1 °F /  3.4 °C 29.5in /  998.3hPa Calm     90% 0in /  0.0mm 83 W/m2
15:19 40.8 °F /  4.9 °C 37.8 °F /  3.2 °C 29.5in /  998.0hPa Calm   2mph /  3.2km/h 89% 0in /  0.0mm 77 W/m2
15:24 40.6 °F /  4.8 °C 37.6 °F /  3.1 °C 29.5in /  998.0hPa Calm   1mph /  1.6km/h 89% 0in /  0.0mm 65 W/m2
15:29 40.6 °F /  4.8 °C 37.6 °F /  3.1 °C 29.5in /  998.0hPa Calm     89% 0in /  0.0mm 56 W/m2
15:34 40.6 °F /  4.8 °C 37.6 °F /  3.1 °C 29.5in /  998.3hPa East 0.9mph /  1.4km/h 2mph /  3.2km/h 89% 0in /  0.0mm 54 W/m2
15:39 40.5 °F /  4.7 °C 37.8 °F /  3.2 °C 29.5in /  998.6hPa Calm     90% 0in /  0.0mm 47 W/m2
15:44 40.5 °F /  4.7 °C 37.8 °F /  3.2 °C 29.5in /  998.6hPa SE 0.9mph /  1.4km/h 2mph /  3.2km/h 90% 0in /  0.0mm 40 W/m2
15:49 40.3 °F /  4.6 °C 37.6 °F /  3.1 °C 29.5in /  998.6hPa Calm   1mph /  1.6km/h 90% 0in /  0.0mm 39 W/m2
15:54 40.1 °F /  4.5 °C 37.8 °F /  3.2 °C 29.5in /  998.6hPa Calm     91% 0in /  0.0mm 40 W/m2
15:59 39.9 °F /  4.4 °C 37.6 °F /  3.1 °C 29.5in /  998.6hPa Calm   1mph /  1.6km/h 91% 0in /  0.0mm 44 W/m2
16:04 39.7 °F /  4.3 °C 37.4 °F /  3 °C 29.5in /  998.6hPa Calm     91% 0in /  0.0mm 30 W/m2
16:09 39.7 °F /  4.3 °C 37.4 °F /  3 °C 29.5in /  998.6hPa Calm     91% 0in /  0.0mm 25 W/m2
16:14 39.7 °F /  4.3 °C 37.4 °F /  3 °C 29.5in /  998.6hPa ESE 0.9mph /  1.4km/h 2mph /  3.2km/h 91% 0in /  0.0mm 23 W/m2
16:20 39.6 °F /  4.2 °C 37.2 °F /  2.9 °C 29.5in /  999.0hPa Calm     91% 0in /  0.0mm 18 W/m2
16:25 39.4 °F /  4.1 °C 37.2 °F /  2.9 °C 29.5in /  999.0hPa Calm     92% 0in /  0.0mm 14 W/m2
16:30 39.4 °F /  4.1 °C 37.2 °F /  2.9 °C 29.5in /  999.0hPa Calm     92% 0in /  0.0mm 9 W/m2
16:35 39 °F /  3.9 °C 36.9 °F /  2.7 °C 29.5in /  999.0hPa SW 0.9mph /  1.4km/h 2mph /  3.2km/h 92% 0in /  0.0mm 9 W/m2
16:40 39 °F /  3.9 °C 36.9 °F /  2.7 °C 29.5in /  999.0hPa Calm     92% 0in /  0.0mm 9 W/m2
16:45 38.8 °F /  3.8 °C 36.7 °F /  2.6 °C 29.5in /  999.3hPa Calm     92% 0in /  0.0mm 7 W/m2
16:50 38.7 °F /  3.7 °C 36.5 °F /  2.5 °C 29.5in /  999.3hPa SW 0.9mph /  1.4km/h 1mph /  1.6km/h 92% 0in /  0.0mm 0 W/m2
16:55 38.5 °F /  3.6 °C 36.3 °F /  2.4 °C 29.5in /  999.0hPa Calm     92% 0in /  0.0mm 0 W/m2
17:00 38.5 °F /  3.6 °C 36.3 °F /  2.4 °C 29.5in /  999.0hPa Calm     92% 0in /  0.0mm 0 W/m2
17:05 38.1 °F /  3.4 °C 36.3 °F /  2.4 °C 29.5in /  999.0hPa Calm   1mph /  1.6km/h 93% 0in /  0.0mm 0 W/m2
17:10 37.9 °F /  3.3 °C 36.1 °F /  2.3 °C 29.5in /  999.0hPa Calm     93% 0in /  0.0mm 0 W/m2
17:15 37.9 °F /  3.3 °C 36.1 °F /  2.3 °C 29.5in /  999.0hPa Calm     93% 0in /  0.0mm 0 W/m2
17:20 37.8 °F /  3.2 °C 36 °F /  2.2 °C 29.5in /  999.0hPa Calm   1mph /  1.6km/h 93% 0in /  0.0mm 0 W/m2
17:25 37.6 °F /  3.1 °C 35.8 °F /  2.1 °C 29.5in /  999.0hPa Calm     93% 0in /  0.0mm 0 W/m2
17:30 37.4 °F /  3 °C 35.6 °F /  2 °C 29.5in /  999.0hPa Calm     93% 0in /  0.0mm 0 W/m2
17:35 37.2 °F /  2.9 °C 35.4 °F /  1.9 °C 29.5in /  999.0hPa Calm     93% 0in /  0.0mm 0 W/m2
17:40 37 °F /  2.8 °C 35.2 °F /  1.8 °C 29.5in /  999.0hPa Calm     93% 0in /  0.0mm 0 W/m2
17:45 36.9 °F /  2.7 °C 35.1 °F /  1.7 °C 29.5in /  999.3hPa Calm     93% 0in /  0.0mm 0 W/m2
17:50 36.9 °F /  2.7 °C 35.2 °F /  1.8 °C 29.5in /  999.3hPa Calm     94% 0in /  0.0mm 0 W/m2
17:55 36.7 °F /  2.6 °C 35.1 °F /  1.7 °C 29.5in /  999.3hPa Calm     94% 0in /  0.0mm 0 W/m2
18:00 36.5 °F /  2.5 °C 34.9 °F /  1.6 °C 29.5in /  999.7hPa Calm     94% 0in /  0.0mm 0 W/m2
18:05 36.3 °F /  2.4 °C 34.7 °F /  1.5 °C 29.5in /  999.7hPa Calm     94% 0in /  0.0mm 0 W/m2
18:10 36.3 °F /  2.4 °C 34.7 °F /  1.5 °C 29.5in /  999.7hPa Calm     94% 0in /  0.0mm 0 W/m2
18:15 36.3 °F /  2.4 °C 34.7 °F /  1.5 °C 29.5in /  999.7hPa Calm   1mph /  1.6km/h 94% 0in /  0.0mm 0 W/m2
18:20 36.1 °F /  2.3 °C 34.5 °F /  1.4 °C 29.5in /  999.3hPa Calm     94% 0in /  0.0mm 0 W/m2
18:25 36.1 °F /  2.3 °C 34.5 °F /  1.4 °C 29.5in /  999.3hPa Calm     94% 0in /  0.0mm 0 W/m2
18:30 36 °F /  2.2 °C 34.3 °F /  1.3 °C 29.5in /  999.3hPa SW 0.9mph /  1.4km/h 1mph /  1.6km/h 94% 0in /  0.0mm 0 W/m2
18:35 36 °F /  2.2 °C 34.3 °F /  1.3 °C 29.5in /  999.0hPa Calm     94% 0in /  0.0mm 0 W/m2
18:40 35.8 °F /  2.1 °C 34.2 °F /  1.2 °C 29.5in /  999.0hPa Calm     94% 0in /  0.0mm 0 W/m2
18:45 35.8 °F /  2.1 °C 34.2 °F /  1.2 °C 29.5in /  999.0hPa Calm     94% 0in /  0.0mm 0 W/m2
18:50 35.6 °F /  2 °C 34 °F /  1.1 °C 29.5in /  999.0hPa Calm     94% 0in /  0.0mm 0 W/m2
18:55 35.4 °F /  1.9 °C 33.8 °F /  1 °C 29.5in /  999.0hPa Calm     94% 0in /  0.0mm 0 W/m2
19:00 35.4 °F /  1.9 °C 34.2 °F /  1.2 °C 29.5in /  999.0hPa Calm     95% 0in /  0.0mm 0 W/m2
19:05 35.4 °F /  1.9 °C 34.2 °F /  1.2 °C 29.5in /  999.0hPa Calm     95% 0in /  0.0mm 0 W/m2
19:10 35.4 °F /  1.9 °C 34.2 °F /  1.2 °C 29.5in /  999.0hPa SW 0.9mph /  1.4km/h 2mph /  3.2km/h 95% 0in /  0.0mm 0 W/m2
19:15 35.4 °F /  1.9 °C 34.2 °F /  1.2 °C 29.5in /  998.6hPa Calm   1mph /  1.6km/h 95% 0in /  0.0mm 0 W/m2
19:20 35.8 °F /  2.1 °C 34.5 °F /  1.4 °C 29.5in /  999.0hPa SW 0.9mph /  1.4km/h 2mph /  3.2km/h 95% 0in /  0.0mm 0 W/m2
19:25 35.8 °F /  2.1 °C 34.5 °F /  1.4 °C 29.5in /  998.6hPa Calm     95% 0in /  0.0mm 0 W/m2
19:30 36 °F /  2.2 °C 34.7 °F /  1.5 °C 29.5in /  998.6hPa West 2mph /  3.2km/h 3mph /  4.8km/h 95% 0in /  0.0mm 0 W/m2
19:35 36 °F /  2.2 °C 34.7 °F /  1.5 °C 29.5in /  999.0hPa WNW 2mph /  3.2km/h 2mph /  3.2km/h 95% 0in /  0.0mm 0 W/m2
19:40 36.1 °F /  2.3 °C 34.9 °F /  1.6 °C 29.5in /  999.0hPa WNW 2.9mph /  4.7km/h 3mph /  4.8km/h 95% 0in /  0.0mm 0 W/m2
19:45 36.3 °F /  2.4 °C 35.1 °F /  1.7 °C 29.5in /  998.6hPa NW 2mph /  3.2km/h 3mph /  4.8km/h 95% 0in /  0.0mm 0 W/m2
Juneau County Weather
Compliments of Weather Underground - 2 mb